Terminal Aerodrome Forecast
Issued by NWS

Home | Current Version | Previous Version | Text Only | Print | Product List | Glossary On
Versions: 1 2 3 4 5 6 7 8 9 10 11 12 13 14 15 16 17 18 19 20 21 22 23
213
FTUS46 KMTR 242351 CCA
TAFMRY
TAF COR
KMRY 242351Z 2500/2524 26010KT 6SM HZ OVC008
     FM250300 24004KT 6SM HZ OVC005
     FM251200 VRB03KT 2SM BR FU OVC004
     FM251800 26008KT 6SM HZ FU SCT012=

USA.gov is the U.S. government's official web portal to all federal, state and local government web resources and services.